sensor_id;sensor_type;location;lat;lon;timestamp;P1;durP1;ratioP1;P2;durP2;ratioP2
19414;SDS011;9843;48.882;12.592;2022-10-18T00:00:37;25.70;;;16.00;;
19414;SDS011;9843;48.882;12.592;2022-10-18T00:03:04;30.47;;;14.40;;
19414;SDS011;9843;48.882;12.592;2022-10-18T00:05:31;64.23;;;16.93;;
19414;SDS011;9843;48.882;12.592;2022-10-18T00:07:58;18.30;;;14.63;;
19414;SDS011;9843;48.882;12.592;2022-10-18T00:10:26;24.73;;;17.27;;
19414;SDS011;9843;48.882;12.592;2022-10-18T00:12:53;18.23;;;15.90;;
19414;SDS011;9843;48.882;12.592;2022-10-18T00:15:20;25.00;;;18.57;;
19414;SDS011;9843;48.882;12.592;2022-10-18T00:17:47;19.37;;;14.90;;
19414;SDS011;9843;48.882;12.592;2022-10-18T00:20:13;19.63;;;15.07;;
19414;SDS011;9843;48.882;12.592;2022-10-18T00:22:40;21.87;;;14.90;;
19414;SDS011;9843;48.882;12.592;2022-10-18T00:25:08;18.97;;;15.17;;
19414;SDS011;9843;48.882;12.592;2022-10-18T00:27:36;15.80;;;13.47;;
19414;SDS011;9843;48.882;12.592;2022-10-18T00:30:03;18.13;;;15.20;;
19414;SDS011;9843;48.882;12.592;2022-10-18T00:32:34;17.90;;;14.73;;
19414;SDS011;9843;48.882;12.592;2022-10-18T00:35:02;15.40;;;12.40;;
19414;SDS011;9843;48.882;12.592;2022-10-18T00:37:29;13.63;;;11.93;;
19414;SDS011;9843;48.882;12.592;2022-10-18T00:39:56;17.20;;;14.03;;
19414;SDS011;9843;48.882;12.592;2022-10-18T00:42:24;16.03;;;12.73;;
19414;SDS011;9843;48.882;12.592;2022-10-18T00:45:03;16.80;;;13.73;;
19414;SDS011;9843;48.882;12.592;2022-10-18T00:47:39;15.27;;;12.70;;
19414;SDS011;9843;48.882;12.592;2022-10-18T00:50:06;13.63;;;12.23;;
19414;SDS011;9843;48.882;12.592;2022-10-18T00:52:34;11.83;;;10.60;;
19414;SDS011;9843;48.882;12.592;2022-10-18T00:55:04;16.50;;;13.53;;
19414;SDS011;9843;48.882;12.592;2022-10-18T00:57:31;13.03;;;11.63;;
19414;SDS011;9843;48.882;12.592;2022-10-18T00:59:58;13.87;;;11.43;;
19414;SDS011;9843;48.882;12.592;2022-10-18T01:02:27;17.00;;;13.53;;
19414;SDS011;9843;48.882;12.592;2022-10-18T01:04:53;13.10;;;11.73;;
19414;SDS011;9843;48.882;12.592;2022-10-18T01:07:28;16.53;;;13.17;;
19414;SDS011;9843;48.882;12.592;2022-10-18T01:10:05;22.90;;;12.80;;
19414;SDS011;9843;48.882;12.592;2022-10-18T01:12:43;22.43;;;15.50;;
19414;SDS011;9843;48.882;12.592;2022-10-18T01:15:20;21.13;;;15.10;;
19414;SDS011;9843;48.882;12.592;2022-10-18T01:17:53;17.27;;;14.43;;
19414;SDS011;9843;48.882;12.592;2022-10-18T01:20:34;18.60;;;14.23;;
19414;SDS011;9843;48.882;12.592;2022-10-18T01:23:20;16.63;;;12.80;;
19414;SDS011;9843;48.882;12.592;2022-10-18T01:25:59;14.90;;;12.20;;
19414;SDS011;9843;48.882;12.592;2022-10-18T01:28:37;14.93;;;13.27;;
19414;SDS011;9843;48.882;12.592;2022-10-18T01:31:18;16.70;;;13.00;;
19414;SDS011;9843;48.882;12.592;2022-10-18T01:33:48;15.67;;;11.67;;
19414;SDS011;9843;48.882;12.592;2022-10-18T01:36:20;21.50;;;13.20;;
19414;SDS011;9843;48.882;12.592;2022-10-18T01:38:51;13.60;;;11.93;;
19414;SDS011;9843;48.882;12.592;2022-10-18T01:41:22;14.93;;;12.37;;
19414;SDS011;9843;48.882;12.592;2022-10-18T01:43:51;18.13;;;13.10;;
19414;SDS011;9843;48.882;12.592;2022-10-18T01:46:23;16.50;;;13.90;;
19414;SDS011;9843;48.882;12.592;2022-10-18T01:48:51;17.30;;;13.27;;
19414;SDS011;9843;48.882;12.592;2022-10-18T01:51:21;20.10;;;15.97;;
19414;SDS011;9843;48.882;12.592;2022-10-18T01:53:50;17.80;;;13.97;;
19414;SDS011;9843;48.882;12.592;2022-10-18T01:56:21;15.90;;;12.73;;
19414;SDS011;9843;48.882;12.592;2022-10-18T01:59:05;19.57;;;13.47;;
19414;SDS011;9843;48.882;12.592;2022-10-18T02:01:44;16.27;;;12.27;;
19414;SDS011;9843;48.882;12.592;2022-10-18T02:04:21;14.30;;;12.53;;
19414;SDS011;9843;48.882;12.592;2022-10-18T02:06:56;19.97;;;13.30;;
19414;SDS011;9843;48.882;12.592;2022-10-18T02:09:29;12.47;;;10.10;;
19414;SDS011;9843;48.882;12.592;2022-10-18T02:12:03;13.33;;;12.03;;
19414;SDS011;9843;48.882;12.592;2022-10-18T02:14:32;14.33;;;11.53;;
19414;SDS011;9843;48.882;12.592;2022-10-18T02:17:02;17.77;;;12.13;;
19414;SDS011;9843;48.882;12.592;2022-10-18T02:19:33;17.90;;;12.07;;
19414;SDS011;9843;48.882;12.592;2022-10-18T02:22:03;15.57;;;12.13;;
19414;SDS011;9843;48.882;12.592;2022-10-18T02:24:33;18.43;;;11.47;;
19414;SDS011;9843;48.882;12.592;2022-10-18T02:27:03;22.83;;;13.03;;
19414;SDS011;9843;48.882;12.592;2022-10-18T02:29:30;35.90;;;14.93;;
19414;SDS011;9843;48.882;12.592;2022-10-18T02:31:59;26.97;;;12.67;;
19414;SDS011;9843;48.882;12.592;2022-10-18T02:34:35;22.30;;;12.70;;
19414;SDS011;9843;48.882;12.592;2022-10-18T02:37:04;32.13;;;13.93;;
19414;SDS011;9843;48.882;12.592;2022-10-18T02:39:33;30.80;;;14.87;;
19414;SDS011;9843;48.882;12.592;2022-10-18T02:42:01;30.73;;;13.20;;
19414;SDS011;9843;48.882;12.592;2022-10-18T02:44:30;51.80;;;15.07;;
19414;SDS011;9843;48.882;12.592;2022-10-18T02:46:57;28.27;;;13.77;;
19414;SDS011;9843;48.882;12.592;2022-10-18T02:49:26;22.20;;;12.67;;
19414;SDS011;9843;48.882;12.592;2022-10-18T02:51:53;25.43;;;14.57;;
19414;SDS011;9843;48.882;12.592;2022-10-18T02:54:19;21.17;;;13.77;;
19414;SDS011;9843;48.882;12.592;2022-10-18T02:56:46;17.07;;;13.57;;
19414;SDS011;9843;48.882;12.592;2022-10-18T02:59:14;22.47;;;15.77;;
19414;SDS011;9843;48.882;12.592;2022-10-18T03:01:40;25.27;;;15.60;;
19414;SDS011;9843;48.882;12.592;2022-10-18T03:04:07;20.93;;;14.73;;
19414;SDS011;9843;48.882;12.592;2022-10-18T03:06:36;25.93;;;15.93;;
19414;SDS011;9843;48.882;12.592;2022-10-18T03:09:03;22.60;;;15.80;;
19414;SDS011;9843;48.882;12.592;2022-10-18T03:11:31;23.60;;;16.00;;
19414;SDS011;9843;48.882;12.592;2022-10-18T03:13:58;24.70;;;16.13;;
19414;SDS011;9843;48.882;12.592;2022-10-18T03:16:25;29.00;;;18.67;;
19414;SDS011;9843;48.882;12.592;2022-10-18T03:18:51;22.77;;;15.67;;
19414;SDS011;9843;48.882;12.592;2022-10-18T03:21:18;28.73;;;16.73;;
19414;SDS011;9843;48.882;12.592;2022-10-18T03:23:46;27.17;;;16.23;;
19414;SDS011;9843;48.882;12.592;2022-10-18T03:26:13;23.40;;;15.53;;
19414;SDS011;9843;48.882;12.592;2022-10-18T03:28:40;27.17;;;16.63;;
19414;SDS011;9843;48.882;12.592;2022-10-18T03:31:07;28.47;;;15.93;;
19414;SDS011;9843;48.882;12.592;2022-10-18T03:33:33;39.97;;;17.07;;
19414;SDS011;9843;48.882;12.592;2022-10-18T03:36:00;25.47;;;14.70;;
19414;SDS011;9843;48.882;12.592;2022-10-18T03:38:27;24.40;;;14.90;;
19414;SDS011;9843;48.882;12.592;2022-10-18T03:40:55;28.57;;;13.90;;
19414;SDS011;9843;48.882;12.592;2022-10-18T03:43:22;23.70;;;12.67;;
19414;SDS011;9843;48.882;12.592;2022-10-18T03:45:49;20.90;;;16.67;;
19414;SDS011;9843;48.882;12.592;2022-10-18T03:48:16;24.00;;;15.17;;
19414;SDS011;9843;48.882;12.592;2022-10-18T03:50:43;26.23;;;16.60;;
19414;SDS011;9843;48.882;12.592;2022-10-18T03:53:09;25.40;;;17.57;;
19414;SDS011;9843;48.882;12.592;2022-10-18T03:55:36;23.10;;;17.43;;
19414;SDS011;9843;48.882;12.592;2022-10-18T03:58:04;26.27;;;18.57;;
19414;SDS011;9843;48.882;12.592;2022-10-18T04:00:32;36.80;;;18.77;;
19414;SDS011;9843;48.882;12.592;2022-10-18T04:02:59;38.40;;;18.57;;
19414;SDS011;9843;48.882;12.592;2022-10-18T04:05:26;38.27;;;18.37;;
19414;SDS011;9843;48.882;12.592;2022-10-18T04:07:54;29.23;;;16.67;;
19414;SDS011;9843;48.882;12.592;2022-10-18T04:10:22;51.37;;;21.33;;
19414;SDS011;9843;48.882;12.592;2022-10-18T04:12:49;59.50;;;20.80;;
19414;SDS011;9843;48.882;12.592;2022-10-18T04:15:17;31.00;;;17.47;;
19414;SDS011;9843;48.882;12.592;2022-10-18T04:17:44;50.50;;;20.73;;
19414;SDS011;9843;48.882;12.592;2022-10-18T04:20:11;27.03;;;16.47;;
19414;SDS011;9843;48.882;12.592;2022-10-18T04:22:38;49.40;;;17.90;;
19414;SDS011;9843;48.882;12.592;2022-10-18T04:25:05;24.90;;;15.63;;
19414;SDS011;9843;48.882;12.592;2022-10-18T04:27:32;19.03;;;13.50;;
19414;SDS011;9843;48.882;12.592;2022-10-18T04:29:58;21.63;;;14.90;;
19414;SDS011;9843;48.882;12.592;2022-10-18T04:32:27;26.67;;;15.23;;
19414;SDS011;9843;48.882;12.592;2022-10-18T04:34:53;25.60;;;15.27;;
19414;SDS011;9843;48.882;12.592;2022-10-18T04:37:20;25.33;;;14.17;;
19414;SDS011;9843;48.882;12.592;2022-10-18T04:39:47;40.17;;;17.53;;
19414;SDS011;9843;48.882;12.592;2022-10-18T04:42:14;36.00;;;16.17;;
19414;SDS011;9843;48.882;12.592;2022-10-18T04:44:40;34.73;;;15.70;;
19414;SDS011;9843;48.882;12.592;2022-10-18T04:47:07;19.20;;;14.97;;
19414;SDS011;9843;48.882;12.592;2022-10-18T04:49:35;39.70;;;18.60;;
19414;SDS011;9843;48.882;12.592;2022-10-18T04:52:02;33.00;;;14.33;;
19414;SDS011;9843;48.882;12.592;2022-10-18T04:54:29;48.77;;;16.97;;
19414;SDS011;9843;48.882;12.592;2022-10-18T04:56:56;25.47;;;14.60;;
19414;SDS011;9843;48.882;12.592;2022-10-18T04:59:23;40.70;;;16.40;;
19414;SDS011;9843;48.882;12.592;2022-10-18T05:01:49;23.23;;;14.80;;
19414;SDS011;9843;48.882;12.592;2022-10-18T05:04:16;57.37;;;17.20;;
19414;SDS011;9843;48.882;12.592;2022-10-18T05:06:44;37.83;;;16.50;;
19414;SDS011;9843;48.882;12.592;2022-10-18T05:09:11;23.83;;;16.00;;
19414;SDS011;9843;48.882;12.592;2022-10-18T05:11:38;58.37;;;17.93;;
19414;SDS011;9843;48.882;12.592;2022-10-18T05:14:05;79.53;;;18.37;;
19414;SDS011;9843;48.882;12.592;2022-10-18T05:16:34;82.00;;;18.60;;
19414;SDS011;9843;48.882;12.592;2022-10-18T05:19:02;72.63;;;19.57;;
19414;SDS011;9843;48.882;12.592;2022-10-18T05:21:30;51.80;;;17.20;;
19414;SDS011;9843;48.882;12.592;2022-10-18T05:23:58;27.00;;;14.33;;
19414;SDS011;9843;48.882;12.592;2022-10-18T05:26:25;101.83;;;19.47;;
19414;SDS011;9843;48.882;12.592;2022-10-18T05:28:52;86.27;;;18.33;;
19414;SDS011;9843;48.882;12.592;2022-10-18T05:31:19;33.37;;;16.53;;
19414;SDS011;9843;48.882;12.592;2022-10-18T05:33:46;39.27;;;17.70;;
19414;SDS011;9843;48.882;12.592;2022-10-18T05:36:13;22.47;;;14.40;;
19414;SDS011;9843;48.882;12.592;2022-10-18T05:38:40;28.97;;;15.50;;
19414;SDS011;9843;48.882;12.592;2022-10-18T05:41:09;27.27;;;14.03;;
19414;SDS011;9843;48.882;12.592;2022-10-18T05:43:36;35.50;;;16.43;;
19414;SDS011;9843;48.882;12.592;2022-10-18T05:46:03;49.90;;;16.70;;
19414;SDS011;9843;48.882;12.592;2022-10-18T05:48:31;60.67;;;17.30;;
19414;SDS011;9843;48.882;12.592;2022-10-18T05:50:58;28.37;;;16.33;;
19414;SDS011;9843;48.882;12.592;2022-10-18T05:53:26;48.93;;;17.67;;
19414;SDS011;9843;48.882;12.592;2022-10-18T05:55:53;57.90;;;16.73;;
19414;SDS011;9843;48.882;12.592;2022-10-18T05:58:21;28.07;;;13.73;;
19414;SDS011;9843;48.882;12.592;2022-10-18T06:00:48;51.33;;;18.03;;
19414;SDS011;9843;48.882;12.592;2022-10-18T06:03:16;27.33;;;15.67;;
19414;SDS011;9843;48.882;12.592;2022-10-18T06:05:42;17.40;;;15.53;;
19414;SDS011;9843;48.882;12.592;2022-10-18T06:08:09;15.70;;;13.90;;
19414;SDS011;9843;48.882;12.592;2022-10-18T06:10:37;49.63;;;17.63;;
19414;SDS011;9843;48.882;12.592;2022-10-18T06:13:04;37.93;;;17.60;;
19414;SDS011;9843;48.882;12.592;2022-10-18T06:15:32;35.67;;;18.30;;
19414;SDS011;9843;48.882;12.592;2022-10-18T06:17:58;40.90;;;16.63;;
19414;SDS011;9843;48.882;12.592;2022-10-18T06:20:25;30.33;;;16.50;;
19414;SDS011;9843;48.882;12.592;2022-10-18T06:22:52;35.40;;;16.93;;
19414;SDS011;9843;48.882;12.592;2022-10-18T06:25:19;45.73;;;17.47;;
19414;SDS011;9843;48.882;12.592;2022-10-18T06:27:45;49.73;;;17.40;;
19414;SDS011;9843;48.882;12.592;2022-10-18T06:30:12;39.40;;;17.23;;
19414;SDS011;9843;48.882;12.592;2022-10-18T06:32:41;18.73;;;16.23;;
19414;SDS011;9843;48.882;12.592;2022-10-18T06:35:08;27.27;;;18.60;;
19414;SDS011;9843;48.882;12.592;2022-10-18T06:37:34;22.33;;;18.63;;
19414;SDS011;9843;48.882;12.592;2022-10-18T06:40:02;33.17;;;19.20;;
19414;SDS011;9843;48.882;12.592;2022-10-18T06:42:29;27.40;;;18.27;;
19414;SDS011;9843;48.882;12.592;2022-10-18T06:44:56;23.30;;;17.97;;
19414;SDS011;9843;48.882;12.592;2022-10-18T06:47:24;21.20;;;17.13;;
19414;SDS011;9843;48.882;12.592;2022-10-18T06:49:52;19.50;;;16.23;;
19414;SDS011;9843;48.882;12.592;2022-10-18T06:52:19;26.33;;;18.17;;
19414;SDS011;9843;48.882;12.592;2022-10-18T06:54:49;20.63;;;14.60;;
19414;SDS011;9843;48.882;12.592;2022-10-18T06:57:16;21.47;;;16.80;;
19414;SDS011;9843;48.882;12.592;2022-10-18T06:59:43;19.17;;;16.53;;
19414;SDS011;9843;48.882;12.592;2022-10-18T07:02:10;20.37;;;16.07;;
19414;SDS011;9843;48.882;12.592;2022-10-18T07:04:41;35.63;;;14.37;;
19414;SDS011;9843;48.882;12.592;2022-10-18T07:07:09;38.87;;;17.40;;
19414;SDS011;9843;48.882;12.592;2022-10-18T07:09:36;45.10;;;18.23;;
19414;SDS011;9843;48.882;12.592;2022-10-18T07:12:03;32.00;;;15.60;;
19414;SDS011;9843;48.882;12.592;2022-10-18T07:14:30;26.40;;;14.90;;
19414;SDS011;9843;48.882;12.592;2022-10-18T07:16:57;23.63;;;15.67;;
19414;SDS011;9843;48.882;12.592;2022-10-18T07:19:24;34.30;;;17.67;;
19414;SDS011;9843;48.882;12.592;2022-10-18T07:21:51;57.30;;;19.57;;
19414;SDS011;9843;48.882;12.592;2022-10-18T07:24:19;31.07;;;21.33;;
19414;SDS011;9843;48.882;12.592;2022-10-18T07:26:46;23.33;;;17.27;;
19414;SDS011;9843;48.882;12.592;2022-10-18T07:29:13;38.83;;;18.60;;
19414;SDS011;9843;48.882;12.592;2022-10-18T07:31:40;27.80;;;17.57;;
19414;SDS011;9843;48.882;12.592;2022-10-18T07:34:07;35.57;;;17.50;;
19414;SDS011;9843;48.882;12.592;2022-10-18T07:36:37;46.50;;;18.60;;
19414;SDS011;9843;48.882;12.592;2022-10-18T07:39:04;47.50;;;17.60;;
19414;SDS011;9843;48.882;12.592;2022-10-18T07:41:33;24.60;;;14.07;;
19414;SDS011;9843;48.882;12.592;2022-10-18T07:44:00;29.30;;;16.80;;
19414;SDS011;9843;48.882;12.592;2022-10-18T07:46:27;59.47;;;18.03;;
19414;SDS011;9843;48.882;12.592;2022-10-18T07:48:54;47.93;;;16.63;;
19414;SDS011;9843;48.882;12.592;2022-10-18T07:51:22;25.67;;;15.90;;
19414;SDS011;9843;48.882;12.592;2022-10-18T07:53:49;23.13;;;15.77;;
19414;SDS011;9843;48.882;12.592;2022-10-18T07:56:16;33.27;;;18.37;;
19414;SDS011;9843;48.882;12.592;2022-10-18T07:58:46;22.63;;;14.30;;
19414;SDS011;9843;48.882;12.592;2022-10-18T08:01:15;20.40;;;15.33;;
19414;SDS011;9843;48.882;12.592;2022-10-18T08:03:42;22.60;;;15.07;;
19414;SDS011;9843;48.882;12.592;2022-10-18T08:06:09;18.10;;;14.40;;
19414;SDS011;9843;48.882;12.592;2022-10-18T08:08:38;17.37;;;13.83;;
19414;SDS011;9843;48.882;12.592;2022-10-18T08:11:06;17.93;;;14.53;;
19414;SDS011;9843;48.882;12.592;2022-10-18T08:13:34;24.30;;;16.03;;
19414;SDS011;9843;48.882;12.592;2022-10-18T08:16:02;14.23;;;12.70;;
19414;SDS011;9843;48.882;12.592;2022-10-18T08:18:30;16.90;;;14.13;;
19414;SDS011;9843;48.882;12.592;2022-10-18T08:20:58;19.63;;;14.73;;
19414;SDS011;9843;48.882;12.592;2022-10-18T08:23:25;14.83;;;12.73;;
19414;SDS011;9843;48.882;12.592;2022-10-18T08:25:52;16.23;;;11.83;;
19414;SDS011;9843;48.882;12.592;2022-10-18T08:28:19;17.17;;;14.67;;
19414;SDS011;9843;48.882;12.592;2022-10-18T08:30:46;23.87;;;14.47;;
19414;SDS011;9843;48.882;12.592;2022-10-18T08:33:14;16.37;;;14.50;;
19414;SDS011;9843;48.882;12.592;2022-10-18T08:35:41;24.10;;;15.90;;
19414;SDS011;9843;48.882;12.592;2022-10-18T08:38:07;21.60;;;15.30;;
19414;SDS011;9843;48.882;12.592;2022-10-18T08:40:40;17.57;;;14.70;;
19414;SDS011;9843;48.882;12.592;2022-10-18T08:43:11;20.60;;;15.60;;
19414;SDS011;9843;48.882;12.592;2022-10-18T08:45:46;21.93;;;16.23;;
19414;SDS011;9843;48.882;12.592;2022-10-18T08:48:18;21.40;;;15.03;;
19414;SDS011;9843;48.882;12.592;2022-10-18T08:50:47;20.67;;;15.87;;
19414;SDS011;9843;48.882;12.592;2022-10-18T08:53:16;26.37;;;15.87;;
19414;SDS011;9843;48.882;12.592;2022-10-18T08:55:49;26.53;;;15.90;;
19414;SDS011;9843;48.882;12.592;2022-10-18T08:58:20;22.57;;;16.67;;
19414;SDS011;9843;48.882;12.592;2022-10-18T09:00:50;17.63;;;15.30;;
19414;SDS011;9843;48.882;12.592;2022-10-18T09:03:31;18.33;;;13.90;;
19414;SDS011;9843;48.882;12.592;2022-10-18T09:06:14;17.07;;;14.63;;
19414;SDS011;9843;48.882;12.592;2022-10-18T09:08:50;15.93;;;14.10;;
19414;SDS011;9843;48.882;12.592;2022-10-18T09:11:35;15.97;;;14.37;;
19414;SDS011;9843;48.882;12.592;2022-10-18T09:14:17;16.07;;;14.37;;
19414;SDS011;9843;48.882;12.592;2022-10-18T09:17:03;15.43;;;13.73;;
19414;SDS011;9843;48.882;12.592;2022-10-18T09:19:45;15.23;;;11.73;;
19414;SDS011;9843;48.882;12.592;2022-10-18T09:22:19;13.13;;;11.83;;
19414;SDS011;9843;48.882;12.592;2022-10-18T09:24:52;13.23;;;11.33;;
19414;SDS011;9843;48.882;12.592;2022-10-18T09:27:28;11.07;;;10.07;;
19414;SDS011;9843;48.882;12.592;2022-10-18T09:30:04;11.53;;;10.40;;
19414;SDS011;9843;48.882;12.592;2022-10-18T09:32:41;13.83;;;12.43;;
19414;SDS011;9843;48.882;12.592;2022-10-18T09:35:15;12.50;;;11.27;;
19414;SDS011;9843;48.882;12.592;2022-10-18T09:37:45;19.03;;;10.73;;
19414;SDS011;9843;48.882;12.592;2022-10-18T09:40:14;12.47;;;11.27;;
19414;SDS011;9843;48.882;12.592;2022-10-18T09:42:46;12.03;;;10.33;;
19414;SDS011;9843;48.882;12.592;2022-10-18T09:45:22;12.90;;;10.90;;
19414;SDS011;9843;48.882;12.592;2022-10-18T09:47:55;11.90;;;10.70;;
19414;SDS011;9843;48.882;12.592;2022-10-18T09:50:31;12.43;;;11.13;;
19414;SDS011;9843;48.882;12.592;2022-10-18T09:53:06;14.53;;;12.03;;
19414;SDS011;9843;48.882;12.592;2022-10-18T09:55:42;11.47;;;10.33;;
19414;SDS011;9843;48.882;12.592;2022-10-18T09:58:20;10.40;;;9.40;;
19414;SDS011;9843;48.882;12.592;2022-10-18T10:00:50;11.00;;;9.80;;
19414;SDS011;9843;48.882;12.592;2022-10-18T10:03:17;12.13;;;10.93;;
19414;SDS011;9843;48.882;12.592;2022-10-18T10:05:45;13.87;;;10.50;;
19414;SDS011;9843;48.882;12.592;2022-10-18T10:08:29;17.33;;;11.50;;
19414;SDS011;9843;48.882;12.592;2022-10-18T10:10:58;11.63;;;10.53;;
19414;SDS011;9843;48.882;12.592;2022-10-18T10:13:24;14.40;;;8.80;;
19414;SDS011;9843;48.882;12.592;2022-10-18T10:15:52;12.03;;;9.20;;
19414;SDS011;9843;48.882;12.592;2022-10-18T10:18:21;10.13;;;9.13;;
19414;SDS011;9843;48.882;12.592;2022-10-18T10:20:52;10.00;;;8.93;;
19414;SDS011;9843;48.882;12.592;2022-10-18T10:23:20;10.83;;;9.30;;
19414;SDS011;9843;48.882;12.592;2022-10-18T10:25:51;11.03;;;9.03;;
19414;SDS011;9843;48.882;12.592;2022-10-18T10:28:19;12.33;;;9.97;;
19414;SDS011;9843;48.882;12.592;2022-10-18T10:30:47;8.60;;;7.80;;
19414;SDS011;9843;48.882;12.592;2022-10-18T10:33:29;10.90;;;8.67;;
19414;SDS011;9843;48.882;12.592;2022-10-18T10:36:00;8.80;;;7.97;;
19414;SDS011;9843;48.882;12.592;2022-10-18T10:38:28;14.53;;;9.20;;
19414;SDS011;9843;48.882;12.592;2022-10-18T10:40:56;10.40;;;8.63;;
19414;SDS011;9843;48.882;12.592;2022-10-18T10:43:24;13.77;;;7.97;;
19414;SDS011;9843;48.882;12.592;2022-10-18T10:45:59;9.00;;;7.40;;
19414;SDS011;9843;48.882;12.592;2022-10-18T10:48:30;7.53;;;6.43;;
19414;SDS011;9843;48.882;12.592;2022-10-18T10:51:04;8.77;;;7.93;;
19414;SDS011;9843;48.882;12.592;2022-10-18T10:56:15;10.65;;;7.18;;
19414;SDS011;9843;48.882;12.592;2022-10-18T10:58:45;11.25;;;6.30;;
19414;SDS011;9843;48.882;12.592;2022-10-18T11:01:16;11.25;;;5.35;;
19414;SDS011;9843;48.882;12.592;2022-10-18T11:03:49;9.65;;;6.95;;
19414;SDS011;9843;48.882;12.592;2022-10-18T11:09:10;7.20;;;5.63;;
19414;SDS011;9843;48.882;12.592;2022-10-18T11:11:58;7.53;;;6.30;;
19414;SDS011;9843;48.882;12.592;2022-10-18T11:14:36;9.20;;;6.22;;
19414;SDS011;9843;48.882;12.592;2022-10-18T11:17:09;8.02;;;7.22;;
19414;SDS011;9843;48.882;12.592;2022-10-18T11:19:44;8.82;;;6.03;;
19414;SDS011;9843;48.882;12.592;2022-10-18T11:22:26;7.85;;;7.15;;
19414;SDS011;9843;48.882;12.592;2022-10-18T11:24:57;11.75;;;7.70;;
19414;SDS011;9843;48.882;12.592;2022-10-18T11:27:24;10.68;;;8.65;;
19414;SDS011;9843;48.882;12.592;2022-10-18T11:30:00;10.30;;;8.88;;
19414;SDS011;9843;48.882;12.592;2022-10-18T11:32:40;10.48;;;7.07;;
19414;SDS011;9843;48.882;12.592;2022-10-18T11:35:24;8.98;;;6.82;;
19414;SDS011;9843;48.882;12.592;2022-10-18T11:38:04;6.88;;;5.35;;
19414;SDS011;9843;48.882;12.592;2022-10-18T11:40:44;9.30;;;6.38;;
19414;SDS011;9843;48.882;12.592;2022-10-18T11:43:25;7.70;;;5.78;;
19414;SDS011;9843;48.882;12.592;2022-10-18T11:45:59;17.92;;;9.77;;
19414;SDS011;9843;48.882;12.592;2022-10-18T11:48:58;11.15;;;7.65;;
19414;SDS011;9843;48.882;12.592;2022-10-18T11:51:45;10.57;;;9.43;;
19414;SDS011;9843;48.882;12.592;2022-10-18T11:54:31;7.97;;;7.28;;
19414;SDS011;9843;48.882;12.592;2022-10-18T11:57:24;13.98;;;7.88;;
19414;SDS011;9843;48.882;12.592;2022-10-18T12:00:01;11.93;;;9.57;;
19414;SDS011;9843;48.882;12.592;2022-10-18T12:02:51;10.10;;;8.93;;
19414;SDS011;9843;48.882;12.592;2022-10-18T12:05:27;10.77;;;9.10;;
19414;SDS011;9843;48.882;12.592;2022-10-18T12:07:57;13.40;;;10.52;;
19414;SDS011;9843;48.882;12.592;2022-10-18T12:10:29;10.70;;;7.88;;
19414;SDS011;9843;48.882;12.592;2022-10-18T12:13:00;11.23;;;10.10;;
19414;SDS011;9843;48.882;12.592;2022-10-18T12:15:29;15.05;;;9.77;;
19414;SDS011;9843;48.882;12.592;2022-10-18T12:18:00;10.48;;;8.32;;
19414;SDS011;9843;48.882;12.592;2022-10-18T12:20:32;12.00;;;8.90;;
19414;SDS011;9843;48.882;12.592;2022-10-18T12:23:02;11.73;;;10.20;;
19414;SDS011;9843;48.882;12.592;2022-10-18T12:25:33;13.43;;;9.38;;
19414;SDS011;9843;48.882;12.592;2022-10-18T12:28:16;15.98;;;9.13;;
19414;SDS011;9843;48.882;12.592;2022-10-18T12:30:56;11.73;;;9.30;;
19414;SDS011;9843;48.882;12.592;2022-10-18T12:33:33;11.73;;;10.63;;
19414;SDS011;9843;48.882;12.592;2022-10-18T12:36:05;16.23;;;10.75;;
19414;SDS011;9843;48.882;12.592;2022-10-18T12:38:40;11.53;;;8.37;;
19414;SDS011;9843;48.882;12.592;2022-10-18T12:41:12;10.27;;;8.83;;
19414;SDS011;9843;48.882;12.592;2022-10-18T12:43:49;13.97;;;10.90;;
19414;SDS011;9843;48.882;12.592;2022-10-18T12:46:17;10.63;;;9.53;;
19414;SDS011;9843;48.882;12.592;2022-10-18T12:48:46;13.87;;;10.60;;
19414;SDS011;9843;48.882;12.592;2022-10-18T12:51:26;15.23;;;10.60;;
19414;SDS011;9843;48.882;12.592;2022-10-18T12:53:53;13.07;;;9.93;;
19414;SDS011;9843;48.882;12.592;2022-10-18T12:56:37;10.83;;;9.60;;
19414;SDS011;9843;48.882;12.592;2022-10-18T13:02:28;13.83;;;10.93;;
19414;SDS011;9843;48.882;12.592;2022-10-18T13:04:56;10.57;;;9.40;;
19414;SDS011;9843;48.882;12.592;2022-10-18T13:07:35;14.43;;;10.63;;
19414;SDS011;9843;48.882;12.592;2022-10-18T13:13:09;11.90;;;10.60;;
19414;SDS011;9843;48.882;12.592;2022-10-18T13:16:01;13.00;;;9.77;;
19414;SDS011;9843;48.882;12.592;2022-10-18T13:18:35;19.93;;;11.37;;
19414;SDS011;9843;48.882;12.592;2022-10-18T13:21:13;16.03;;;11.80;;
19414;SDS011;9843;48.882;12.592;2022-10-18T13:23:52;21.20;;;11.77;;
19414;SDS011;9843;48.882;12.592;2022-10-18T13:26:33;12.30;;;8.47;;
19414;SDS011;9843;48.882;12.592;2022-10-18T13:29:22;13.37;;;10.07;;
19414;SDS011;9843;48.882;12.592;2022-10-18T13:32:15;12.17;;;10.47;;
19414;SDS011;9843;48.882;12.592;2022-10-18T13:34:49;11.30;;;10.10;;
19414;SDS011;9843;48.882;12.592;2022-10-18T13:37:20;11.00;;;9.40;;
19414;SDS011;9843;48.882;12.592;2022-10-18T13:39:49;16.13;;;9.70;;
19414;SDS011;9843;48.882;12.592;2022-10-18T13:42:27;11.33;;;9.27;;
19414;SDS011;9843;48.882;12.592;2022-10-18T13:47:58;16.70;;;10.50;;
19414;SDS011;9843;48.882;12.592;2022-10-18T13:51:07;16.53;;;10.43;;
19414;SDS011;9843;48.882;12.592;2022-10-18T13:54:04;18.50;;;9.53;;
19414;SDS011;9843;48.882;12.592;2022-10-18T13:56:50;14.03;;;11.70;;
19414;SDS011;9843;48.882;12.592;2022-10-18T13:59:32;11.40;;;10.00;;
19414;SDS011;9843;48.882;12.592;2022-10-18T14:02:30;11.23;;;9.60;;
19414;SDS011;9843;48.882;12.592;2022-10-18T14:08:14;15.93;;;10.57;;
19414;SDS011;9843;48.882;12.592;2022-10-18T14:10:45;18.50;;;10.67;;
19414;SDS011;9843;48.882;12.592;2022-10-18T14:13:20;13.37;;;8.97;;
19414;SDS011;9843;48.882;12.592;2022-10-18T14:15:50;15.30;;;10.83;;
19414;SDS011;9843;48.882;12.592;2022-10-18T14:18:22;11.40;;;10.20;;
19414;SDS011;9843;48.882;12.592;2022-10-18T14:20:56;13.10;;;9.90;;
19414;SDS011;9843;48.882;12.592;2022-10-18T14:23:30;18.67;;;12.33;;
19414;SDS011;9843;48.882;12.592;2022-10-18T14:26:05;14.50;;;9.60;;
19414;SDS011;9843;48.882;12.592;2022-10-18T14:28:32;12.07;;;9.83;;
19414;SDS011;9843;48.882;12.592;2022-10-18T14:30:59;13.40;;;11.67;;
19414;SDS011;9843;48.882;12.592;2022-10-18T14:33:31;17.40;;;10.97;;
19414;SDS011;9843;48.882;12.592;2022-10-18T14:36:02;11.87;;;10.47;;
19414;SDS011;9843;48.882;12.592;2022-10-18T14:38:33;12.13;;;10.93;;
19414;SDS011;9843;48.882;12.592;2022-10-18T14:41:05;16.73;;;12.00;;
19414;SDS011;9843;48.882;12.592;2022-10-18T14:43:32;10.00;;;9.03;;
19414;SDS011;9843;48.882;12.592;2022-10-18T14:46:09;20.83;;;11.80;;
19414;SDS011;9843;48.882;12.592;2022-10-18T14:48:41;12.23;;;9.90;;
19414;SDS011;9843;48.882;12.592;2022-10-18T14:51:18;16.20;;;10.97;;
19414;SDS011;9843;48.882;12.592;2022-10-18T14:53:45;17.83;;;9.10;;
19414;SDS011;9843;48.882;12.592;2022-10-18T14:56:19;24.00;;;11.77;;
19414;SDS011;9843;48.882;12.592;2022-10-18T14:58:49;28.40;;;14.97;;
19414;SDS011;9843;48.882;12.592;2022-10-18T15:01:18;20.30;;;13.03;;
19414;SDS011;9843;48.882;12.592;2022-10-18T15:03:46;17.70;;;12.13;;
19414;SDS011;9843;48.882;12.592;2022-10-18T15:06:14;17.30;;;14.47;;